Perla Del Mediterran — IJSM — position and weather

sailwx.info

Track history (hours):
 
Tides and Currents Weather Stations Pressure Air Temp Water Temp Dewpoint Dewpoint Depression Visibility Wind Speed Wind Dir Waves Ship Positions

Perla Del Mediterran

Last reported at 2017-Dec-07 12:46 UTC. Time now 2017-Dec-12 12:38 UTC.
Position N 37°02' E 013°59'.

Length 16 m.

Type: Fishing. MMSI: 247304380.

Date/timePositionNaut miles runAvg speedWind from/ knotsBaromVisibWave heightAir tempDewpointWater temp
2017-Dec-07 12:46N 37°02' E 013°59'2 6.5
2017-Dec-07 12:30N 36°60' E 013°60'1 1.6
2017-Dec-07 12:00N 36°60' E 014°01'2 3.1
2017-Dec-07 11:30N 36°60' E 014°03'2 3.1
2017-Dec-07 11:00N 36°59' E 014°05'2 3.0
2017-Dec-07 10:30N 36°59' E 014°07'2 3.1
2017-Dec-07 10:00N 36°59' E 014°08'2 3.2
2017-Dec-07 09:30N 36°58' E 014°10'2 3.1
2017-Dec-07 09:00N 36°58' E 014°12'2 3.1
2017-Dec-07 08:30N 36°57' E 014°14'2 3.1
2017-Dec-07 08:00N 36°56' E 014°16'6 2.0
2017-Dec-07 05:16N 37°01' E 014°12'1 3.1
2017-Dec-07 05:00N 37°01' E 014°11'  
2017-Nov-28 13:03N 37°03' E 013°56'2 2.2
2017-Nov-28 12:17N 37°01' E 013°57'1 3.2
2017-Nov-28 11:59N 37°01' E 013°58'2 3.3
2017-Nov-28 11:30N 37°01' E 013°60'2 3.2
2017-Nov-28 11:00N 37°00' E 014°02'2 3.2
2017-Nov-28 10:30N 37°00' E 014°04'2 3.1
2017-Nov-28 10:00N 36°60' E 014°06'2 3.2
2017-Nov-28 09:30N 36°60' E 014°08'2 3.1
2017-Nov-28 09:00N 36°59' E 014°09'2 3.2
2017-Nov-28 08:30N 36°59' E 014°11'2 3.2
2017-Nov-28 08:00N 36°58' E 014°13'2 3.2
2017-Nov-28 07:30N 36°57' E 014°15'1 2.5
2017-Nov-28 07:00N 36°57' E 014°16'1 2.1
2017-Nov-28 06:30N 36°57' E 014°15'2 3.0
2017-Nov-28 06:00N 36°58' E 014°13'2 3.0
2017-Nov-28 05:30N 36°59' E 014°12'3 3.0
2017-Nov-28 04:30N 36°60' E 014°08'2 3.1
2017-Nov-28 04:00N 37°00' E 014°06'2 3.0
2017-Nov-28 03:30N 37°01' E 014°05'1 2.9
2017-Nov-28 03:00N 37°01' E 014°03'1 2.9
2017-Nov-28 02:30N 37°01' E 014°01'  
Track history (hours):
 
Tides and Currents Weather Stations Pressure Air Temp Water Temp Dewpoint Dewpoint Depression Visibility Wind Speed Wind Dir Waves Ship Positions

Perla Del Mediterran

Last reported at 2017-Dec-07 12:46 UTC. Time now 2017-Dec-12 12:38 UTC.
Position N 37°02' E 013°59'.

Length 16 m.

Type: Fishing. MMSI: 247304380.

Date/timePositionNaut miles runAvg speedWind from/ knotsBaromVisibWave heightAir tempDewpointWater temp
2017-Dec-07 12:46N 37°02' E 013°59'2 6.5
2017-Dec-07 12:30N 36°60' E 013°60'1 1.6
2017-Dec-07 12:00N 36°60' E 014°01'2 3.1
2017-Dec-07 11:30N 36°60' E 014°03'2 3.1
2017-Dec-07 11:00N 36°59' E 014°05'2 3.0
2017-Dec-07 10:30N 36°59' E 014°07'2 3.1
2017-Dec-07 10:00N 36°59' E 014°08'2 3.2
2017-Dec-07 09:30N 36°58' E 014°10'2 3.1
2017-Dec-07 09:00N 36°58' E 014°12'2 3.1
2017-Dec-07 08:30N 36°57' E 014°14'2 3.1
2017-Dec-07 08:00N 36°56' E 014°16'6 2.0
2017-Dec-07 05:16N 37°01' E 014°12'1 3.1
2017-Dec-07 05:00N 37°01' E 014°11'  
2017-Nov-28 13:03N 37°03' E 013°56'2 2.2
2017-Nov-28 12:17N 37°01' E 013°57'1 3.2
2017-Nov-28 11:59N 37°01' E 013°58'2 3.3
2017-Nov-28 11:30N 37°01' E 013°60'2 3.2
2017-Nov-28 11:00N 37°00' E 014°02'2 3.2
2017-Nov-28 10:30N 37°00' E 014°04'2 3.1
2017-Nov-28 10:00N 36°60' E 014°06'2 3.2
2017-Nov-28 09:30N 36°60' E 014°08'2 3.1
2017-Nov-28 09:00N 36°59' E 014°09'2 3.2
2017-Nov-28 08:30N 36°59' E 014°11'2 3.2
2017-Nov-28 08:00N 36°58' E 014°13'2 3.2
2017-Nov-28 07:30N 36°57' E 014°15'1 2.5
2017-Nov-28 07:00N 36°57' E 014°16'1 2.1
2017-Nov-28 06:30N 36°57' E 014°15'2 3.0
2017-Nov-28 06:00N 36°58' E 014°13'2 3.0
2017-Nov-28 05:30N 36°59' E 014°12'3 3.0
2017-Nov-28 04:30N 36°60' E 014°08'2 3.1
2017-Nov-28 04:00N 37°00' E 014°06'2 3.0
2017-Nov-28 03:30N 37°01' E 014°05'1 2.9
2017-Nov-28 03:00N 37°01' E 014°03'1 2.9
2017-Nov-28 02:30N 37°01' E 014°01'  

Dump ship's entire track history